Avalon, Australia
Current Conditions -  °F | °C
As of 8:30 PM on Friday 28 Nov 2014 (Local Time) from YMAV Reporting Station
Clear Clear  
Wind Chill: 57°   Ceiling: Unl
Heat Index: 57°   Visibility: 6mi
Dew Point: 50°   Wind: 14mph
Humidity: 77%   Direction: 170°S
Pressure: 30.12"   Gusts: NA
Location:  38.03°S, 144.47°E
Report Text: YMAV 280930Z AUTO 17012KT 9999 // NCD 14/10 Q1020
Loading
Personal Weather Stations






























Interactive Weather Map New forecast layout! Learn more

10-Day Weather Forecast

Advertisements
Track Severe Weather on mobile